Time;durP1;ratioP1;P1;durP2;ratioP2;P2;SDS_P1;SDS_P2;PMS_P1;PMS_P2;Temp;Humidity;BMP_temperature;BMP_pressure;BME280_temperature;BME280_humidity;BME280_pressure;Samples;Min_cycle;Max_cycle;Signal;HPM_P1;HPM_P2
2022/02/20 00:00:34;;;;;;;3.46;2.46;;;;;;;5.99;74.53;100522.86;449674;116;922541;-81
2022/02/20 00:01:37;;;;;;;2.93;2.35;;;;;;;6.00;74.51;100526.41;449713;116;930618;-79
2022/02/20 00:02:41;;;;;;;2.70;2.44;;;;;;;6.00;74.47;100524.55;447238;116;923023;-81
2022/02/20 00:03:45;;;;;;;3.32;2.74;;;;;;;6.00;74.56;100524.55;449666;116;922546;-80
2022/02/20 00:04:50;;;;;;;3.04;2.24;;;;;;;6.02;74.56;100535.16;448827;116;923304;-81
2022/02/20 00:05:53;;;;;;;3.00;2.62;;;;;;;6.03;74.47;100528.73;448876;116;922617;-81
2022/02/20 00:06:56;;;;;;;4.22;3.02;;;;;;;6.03;74.29;100532.28;447523;116;923088;-80
2022/02/20 00:07:59;;;;;;;3.74;2.10;;;;;;;6.03;74.35;100534.98;449009;115;923091;-81
2022/02/20 00:09:03;;;;;;;2.52;2.28;;;;;;;6.03;74.24;100531.44;449397;116;922485;-80
2022/02/20 00:10:07;;;;;;;3.41;1.99;;;;;;;6.03;74.15;100532.28;445364;118;922560;-82
2022/02/20 00:11:10;;;;;;;2.75;2.21;;;;;;;6.04;74.19;100531.25;446093;116;922186;-81
2022/02/20 00:12:13;;;;;;;2.86;2.18;;;;;;;6.06;74.18;100529.21;449323;115;922746;-79
2022/02/20 00:13:17;;;;;;;2.89;2.34;;;;;;;6.07;74.13;100530.02;446020;119;922414;-79
2022/02/20 00:14:20;;;;;;;3.02;2.17;;;;;;;6.09;74.01;100527.98;446209;116;923097;-81
2022/02/20 00:15:24;;;;;;;3.17;2.11;;;;;;;6.09;73.92;100530.69;450145;115;923725;-80
2022/02/20 00:16:27;;;;;;;2.64;1.85;;;;;;;6.10;73.79;100526.96;450690;114;922711;-81
2022/02/20 00:17:30;;;;;;;2.29;2.04;;;;;;;6.10;73.86;100530.52;450747;114;922176;-81
2022/02/20 00:18:34;;;;;;;3.83;2.42;;;;;;;6.12;73.76;100530.33;451180;115;922921;-80
2022/02/20 00:19:38;;;;;;;2.61;2.19;;;;;;;6.12;73.68;100528.44;451305;115;923204;-81
2022/02/20 00:20:43;;;;;;;2.50;2.08;;;;;;;6.13;73.69;100523.87;451114;115;922728;-81
2022/02/20 00:21:46;;;;;;;3.43;2.26;;;;;;;6.14;73.64;100530.97;451203;115;922268;-80
2022/02/20 00:22:49;;;;;;;3.22;2.01;;;;;;;6.14;73.64;100530.97;450085;115;922197;-80
2022/02/20 00:23:52;;;;;;;2.87;2.20;;;;;;;6.14;73.51;100528.26;450198;115;922134;-81
2022/02/20 00:24:56;;;;;;;2.39;2.18;;;;;;;6.14;73.46;100526.39;450119;116;922794;-80
2022/02/20 00:26:00;;;;;;;3.17;2.25;;;;;;;6.16;73.49;100528.92;446906;114;922347;-81
2022/02/20 00:27:03;;;;;;;2.31;2.09;;;;;;;6.16;73.58;100529.77;445552;116;922186;-81
2022/02/20 00:28:06;;;;;;;3.83;2.59;;;;;;;6.19;73.68;100528.53;450606;113;922503;-81
2022/02/20 00:29:09;;;;;;;2.81;1.93;;;;;;;6.21;73.72;100526.48;449412;115;922619;-81
2022/02/20 00:30:14;;;;;;;2.93;2.06;;;;;;;6.22;73.65;100526.31;449971;116;922058;-80
2022/02/20 00:31:17;;;;;;;3.54;2.56;;;;;;;6.25;73.58;100527.78;450128;116;922218;-79
2022/02/20 00:32:21;;;;;;;2.26;2.06;;;;;;;6.27;73.56;100528.45;450123;114;922709;-80
2022/02/20 00:33:25;;;;;;;2.61;2.05;;;;;;;6.27;73.43;100529.29;450062;115;922603;-80
2022/02/20 00:34:28;;;;;;;3.02;2.24;;;;;;;6.30;73.37;100519.94;450729;114;922398;-79
2022/02/20 00:35:33;;;;;;;5.11;2.56;;;;;;;6.32;73.30;100523.30;449534;110;922258;-81
2022/02/20 00:36:36;;;;;;;3.23;2.48;;;;;;;6.34;73.23;100520.41;450820;114;922072;-80
2022/02/20 00:37:39;;;;;;;4.15;2.46;;;;;;;6.35;73.17;100522.06;450293;114;922123;-81
2022/02/20 00:38:42;;;;;;;3.66;2.56;;;;;;;6.37;73.13;100520.02;450743;117;922346;-80
2022/02/20 00:39:45;;;;;;;2.92;2.27;;;;;;;6.39;73.09;100520.69;450388;116;922374;-81
2022/02/20 00:40:50;;;;;;;2.99;2.42;;;;;;;6.41;72.89;100519.45;450295;115;922254;-79
2022/02/20 00:41:53;;;;;;;3.00;2.55;;;;;;;6.41;72.80;100519.45;450941;114;922400;-80
2022/02/20 00:42:58;;;;;;;2.76;2.51;;;;;;;6.41;72.85;100516.74;450430;115;922346;-80
2022/02/20 00:44:01;;;;;;;3.41;2.77;;;;;;;6.43;72.80;100514.70;449931;116;922671;-79
2022/02/20 00:45:05;;;;;;;4.02;2.92;;;;;;;6.43;72.76;100514.70;450749;113;922190;-79
2022/02/20 00:46:08;;;;;;;4.09;3.02;;;;;;;6.43;72.65;100513.86;451212;115;922216;-80
2022/02/20 00:47:12;;;;;;;4.26;3.11;;;;;;;6.44;72.70;100510.12;450550;115;922250;-83
2022/02/20 00:48:19;;;;;;;3.15;2.84;;;;;;;6.45;72.72;100511.81;450961;111;922462;-80
2022/02/20 00:49:20;;;;;;;4.97;3.82;;;;;;;6.47;72.75;100515.14;450757;117;922525;-81
2022/02/20 00:50:25;;;;;;;3.29;2.92;;;;;;;6.46;72.67;100511.59;450608;116;922601;-79
2022/02/20 00:51:29;;;;;;;4.06;3.01;;;;;;;6.47;72.49;100517.86;450486;115;929861;-79
2022/02/20 00:52:34;;;;;;;4.71;3.25;;;;;;;6.45;72.41;100517.22;449344;115;922017;-81
2022/02/20 00:53:37;;;;;;;4.87;2.85;;;;;;;6.44;72.48;100520.95;450122;116;922403;-82
2022/02/20 00:54:41;;;;;;;2.37;2.16;;;;;;;6.44;72.43;100516.38;450922;114;922173;-81
2022/02/20 00:55:44;;;;;;;3.02;2.68;;;;;;;6.45;72.33;100525.35;450399;113;922093;-81
2022/02/20 00:56:47;;;;;;;2.98;2.46;;;;;;;6.44;72.29;100527.22;449782;117;922219;-80
2022/02/20 00:57:52;;;;;;;3.61;2.69;;;;;;;6.43;72.30;100527.39;450638;117;923569;-81
2022/02/20 00:58:55;;;;;;;3.27;2.65;;;;;;;6.42;72.30;100523.00;450720;116;922384;-81
2022/02/20 00:59:58;;;;;;;3.92;2.68;;;;;;;6.41;72.30;100516.74;450591;116;922131;-82
2022/02/20 01:01:04;;;;;;;4.03;2.69;;;;;;;6.42;72.26;100526.55;450599;115;922340;-82
2022/02/20 01:02:07;;;;;;;3.27;2.74;;;;;;;6.41;72.23;100522.16;450186;116;929986;-82
2022/02/20 01:03:10;;;;;;;3.85;2.86;;;;;;;6.40;72.17;100515.06;450593;116;922012;-80
2022/02/20 01:04:13;;;;;;;2.86;2.59;;;;;;;6.39;72.14;100510.70;440570;117;922811;-80
2022/02/20 01:05:17;;;;;;;3.75;2.45;;;;;;;6.38;72.18;100517.14;440003;117;922669;-79
2022/02/20 01:06:21;;;;;;;2.90;2.55;;;;;;;6.37;72.26;100520.87;449921;113;922079;-81
2022/02/20 01:07:24;;;;;;;3.99;3.48;;;;;;;6.37;72.25;100511.91;450543;113;930321;-80
2022/02/20 01:08:28;;;;;;;4.12;3.42;;;;;;;6.38;72.33;100517.14;450248;115;922492;-80
2022/02/20 01:09:32;;;;;;;4.81;3.07;;;;;;;6.37;72.39;100515.45;451103;117;922145;-81
2022/02/20 01:10:35;;;;;;;4.04;2.91;;;;;;;6.39;72.39;100517.98;450878;115;922337;-81
2022/02/20 01:11:40;;;;;;;3.15;2.56;;;;;;;6.39;72.35;100516.11;449809;115;922676;-82
2022/02/20 01:12:45;;;;;;;3.98;2.56;;;;;;;6.39;72.23;100517.98;449516;115;930383;-81
2022/02/20 01:13:48;;;;;;;3.32;2.45;;;;;;;6.38;72.15;100522.55;450482;117;922252;-81
2022/02/20 01:14:51;;;;;;;3.46;2.46;;;;;;;6.36;72.16;100526.46;449799;115;922623;-82
2022/02/20 01:15:55;;;;;;;2.77;2.41;;;;;;;6.36;72.21;100519.18;449966;115;930206;-82
2022/02/20 01:16:58;;;;;;;2.85;2.12;;;;;;;6.36;72.24;100519.18;449757;117;922623;-81
2022/02/20 01:18:02;;;;;;;3.83;2.25;;;;;;;6.35;72.20;100514.78;438336;120;922977;-82
2022/02/20 01:19:05;;;;;;;3.84;2.79;;;;;;;6.36;72.22;100526.46;440149;117;922857;-80
2022/02/20 01:20:10;;;;;;;2.90;2.24;;;;;;;6.35;72.11;100516.66;448701;115;922866;-81
2022/02/20 01:21:14;;;;;;;4.28;2.97;;;;;;;6.34;72.14;100515.00;449049;117;922838;-82
2022/02/20 01:22:17;;;;;;;4.32;2.38;;;;;;;6.33;72.01;100508.74;449356;116;930541;-81
2022/02/20 01:23:20;;;;;;;3.58;2.77;;;;;;;6.31;72.15;100508.08;449410;116;922811;-81
2022/02/20 01:24:25;;;;;;;3.97;2.74;;;;;;;6.31;72.31;100515.36;437859;118;922669;-80
2022/02/20 01:25:29;;;;;;;4.60;2.76;;;;;;;6.32;72.43;100508.92;430109;120;922569;-81
2022/02/20 01:26:32;;;;;;;3.61;2.61;;;;;;;6.32;72.35;100507.06;432768;120;922619;-81
2022/02/20 01:27:35;;;;;;;3.16;2.31;;;;;;;6.33;72.41;100513.31;434014;120;923170;-82
2022/02/20 01:28:39;;;;;;;3.69;2.37;;;;;;;6.34;72.36;100515.00;435345;119;922472;-82
2022/02/20 01:29:42;;;;;;;3.61;3.02;;;;;;;6.34;72.35;100510.40;434859;120;930618;-81
2022/02/20 01:30:45;;;;;;;3.86;2.44;;;;;;;6.35;72.36;100516.66;432328;120;922591;-82
2022/02/20 01:31:50;;;;;;;3.15;2.34;;;;;;;6.35;72.41;100514.78;441062;118;922995;-82
2022/02/20 01:32:53;;;;;;;3.25;2.18;;;;;;;6.36;72.29;100511.06;441041;118;922790;-81
2022/02/20 01:33:56;;;;;;;4.11;2.92;;;;;;;6.36;72.29;100518.34;442674;118;922621;-81
2022/02/20 01:34:59;;;;;;;3.60;2.60;;;;;;;6.36;72.27;100519.18;433003;120;922599;-81
2022/02/20 01:36:03;;;;;;;3.26;2.53;;;;;;;6.37;72.29;100510.03;430645;121;923197;-81
2022/02/20 01:37:07;;;;;;;4.49;2.75;;;;;;;6.38;72.28;100511.72;426160;122;923113;-81
2022/02/20 01:38:10;;;;;;;2.95;2.61;;;;;;;6.39;72.20;100515.27;433161;120;922769;-81
2022/02/20 01:39:14;;;;;;;3.51;2.65;;;;;;;6.39;72.13;100512.56;440507;118;927381;-82
2022/02/20 01:40:18;;;;;;;3.53;2.95;;;;;;;6.38;72.12;100513.59;433313;120;922455;-82
2022/02/20 01:41:22;;;;;;;3.87;2.71;;;;;;;6.38;72.14;100510.88;439620;119;922478;-81
2022/02/20 01:42:26;;;;;;;4.29;2.57;;;;;;;6.37;72.11;100512.74;436603;118;922661;-81
2022/02/20 01:43:29;;;;;;;3.62;2.55;;;;;;;6.38;72.11;100505.46;433054;120;922913;-81
2022/02/20 01:44:34;;;;;;;3.36;2.42;;;;;;;6.37;72.11;100510.03;437856;119;922704;-81
2022/02/20 01:45:39;;;;;;;5.76;3.00;;;;;;;6.39;72.12;100509.86;433010;122;922809;-81
2022/02/20 01:46:47;;;;;;;3.11;2.61;;;;;;;6.39;72.18;100497.16;436602;120;922683;-81
2022/02/20 01:47:50;;;;;;;3.23;2.42;;;;;;;6.42;72.19;100504.05;435591;120;923153;-81
2022/02/20 01:48:54;;;;;;;3.77;2.74;;;;;;;6.42;72.12;100506.75;432519;120;923101;-81
2022/02/20 01:49:57;;;;;;;4.23;2.69;;;;;;;6.41;72.04;100497.78;437056;120;922898;-80
2022/02/20 01:51:00;;;;;;;4.72;3.08;;;;;;;6.42;71.98;100495.92;424763;122;922714;-80
2022/02/20 01:52:04;;;;;;;4.06;2.77;;;;;;;6.41;71.98;100496.95;440681;117;923351;-81
2022/02/20 01:53:07;;;;;;;4.86;3.02;;;;;;;6.40;71.95;100498.81;446357;116;930602;-81
2022/02/20 01:54:11;;;;;;;4.27;2.57;;;;;;;6.39;71.98;100505.28;446666;117;923191;-81
2022/02/20 01:55:16;;;;;;;4.96;3.21;;;;;;;6.39;72.01;100501.73;448899;116;922598;-81
2022/02/20 01:56:29;;;;;;;5.19;3.42;;;;;;;6.40;72.00;100508.80;448011;116;923683;-81
2022/02/20 01:57:53;;;;;;;3.71;2.57;;;;;;;6.40;72.09;100501.52;448029;117;922663;-81
2022/02/20 01:59:05;;;;;;;4.29;2.81;;;;;;;6.41;72.07;100499.66;431400;120;923102;-81
2022/02/20 02:00:22;;;;;;;4.68;3.16;;;;;;;6.41;71.97;100499.66;446976;116;922638;-81
2022/02/20 02:01:27;;;;;;;4.71;3.14;;;;;;;6.40;72.00;100503.38;449060;117;923040;-81
2022/02/20 02:02:32;;;;;;;3.41;2.76;;;;;;;6.39;72.05;100493.61;448536;117;923081;-81
2022/02/20 02:03:37;;;;;;;4.92;2.87;;;;;;;6.39;72.07;100496.31;445494;116;923271;-81
2022/02/20 02:04:42;;;;;;;4.28;2.94;;;;;;;6.39;72.08;100496.31;446089;116;923040;-80
2022/02/20 02:05:46;;;;;;;4.66;3.07;;;;;;;6.40;72.07;100500.67;444113;117;923082;-80
2022/02/20 02:06:49;;;;;;;3.61;2.86;;;;;;;6.41;72.07;100494.23;447320;118;930623;-81
2022/02/20 02:07:54;;;;;;;5.13;3.04;;;;;;;6.39;72.00;100491.73;444682;117;930582;-81
2022/02/20 02:09:05;;;;;;;5.34;2.89;;;;;;;6.41;71.98;100488.82;446038;116;922549;-81
2022/02/20 02:10:24;;;;;;;3.43;2.83;;;;;;;6.39;71.92;100494.45;445186;117;922585;-82
2022/02/20 02:11:41;;;;;;;4.14;3.00;;;;;;;6.37;71.99;100493.78;445172;116;922692;-81
2022/02/20 02:12:58;;;;;;;5.07;3.74;;;;;;;6.36;71.94;100488.55;444311;116;922594;-81
2022/02/20 02:14:06;;;;;;;5.61;2.88;;;;;;;6.34;71.95;100498.75;445650;117;922601;-82
2022/02/20 02:15:20;;;;;;;4.81;3.09;;;;;;;6.32;72.00;100489.97;446449;116;923369;-81
2022/02/20 02:16:41;;;;;;;4.44;3.21;;;;;;;6.31;72.06;100488.28;447537;115;922671;-81
2022/02/20 02:18:02;;;;;;;5.81;3.86;;;;;;;6.29;72.05;100496.59;446625;116;922912;-81
2022/02/20 02:19:13;;;;;;;5.68;4.05;;;;;;;6.27;72.08;100490.55;447507;116;922494;-81
2022/02/20 02:20:36;;;;;;;5.52;4.79;;;;;;;6.26;72.14;100491.56;447618;115;923152;-81
2022/02/20 02:21:50;;;;;;;8.19;6.92;;;;;;;6.26;72.29;100491.56;444542;115;923044;-81
2022/02/20 02:23:04;;;;;;;6.47;5.84;;;;;;;6.26;72.34;100495.11;447344;115;923128;-81
2022/02/20 02:24:18;;;;;;;6.49;4.86;;;;;;;6.27;72.33;100493.25;446382;116;922608;-81
2022/02/20 02:25:29;;;;;;;5.86;4.88;;;;;;;6.26;72.33;100491.56;435806;116;923540;-80
2022/02/20 02:26:38;;;;;;;6.01;4.05;;;;;;;6.26;72.34;100497.83;447086;115;922685;-81
2022/02/20 02:27:52;;;;;;;5.90;4.23;;;;;;;6.26;72.34;100495.11;448431;116;922673;-82
2022/02/20 02:29:09;;;;;;;6.95;3.95;;;;;;;6.25;72.29;100496.14;446822;116;922624;-82
2022/02/20 02:30:13;;;;;;;5.65;3.89;;;;;;;6.26;72.35;100500.53;448838;115;922614;-81
2022/02/20 02:31:17;;;;;;;4.29;3.44;;;;;;;6.26;72.35;100489.70;439879;118;923515;-81
2022/02/20 02:32:23;;;;;;;6.35;4.07;;;;;;;6.26;72.34;100497.83;439355;117;922967;-80
2022/02/20 02:33:31;;;;;;;6.41;3.60;;;;;;;6.27;72.37;100495.95;449382;116;922674;-81
2022/02/20 02:34:34;;;;;;;6.03;4.09;;;;;;;6.27;72.32;100494.09;449405;115;922730;-81
2022/02/20 02:35:38;;;;;;;3.89;3.14;;;;;;;6.28;72.30;100498.45;441409;117;922489;-81
2022/02/20 02:36:45;;;;;;;5.36;4.11;;;;;;;6.28;72.31;100495.75;439589;118;923422;-81
2022/02/20 02:37:48;;;;;;;6.06;3.87;;;;;;;6.28;72.31;100498.45;440987;118;930670;-82
2022/02/20 02:38:52;;;;;;;4.44;3.61;;;;;;;6.28;72.28;100501.16;441003;118;922733;-80
2022/02/20 02:39:56;;;;;;;5.96;4.04;;;;;;;6.29;72.26;100502.00;440133;118;922749;-79
2022/02/20 02:41:04;;;;;;;5.11;3.87;;;;;;;6.31;72.31;100493.70;441272;118;922717;-82
2022/02/20 02:42:09;;;;;;;5.22;3.70;;;;;;;6.32;72.32;100492.67;440980;117;922442;-82
2022/02/20 02:43:13;;;;;;;5.61;3.78;;;;;;;6.33;72.31;100497.07;441641;120;922712;-81
2022/02/20 02:44:16;;;;;;;4.09;3.36;;;;;;;6.33;72.25;100497.07;434055;120;923017;-81
2022/02/20 02:45:23;;;;;;;5.95;3.60;;;;;;;6.32;72.24;100498.94;433785;120;923098;-82
2022/02/20 02:46:32;;;;;;;5.41;3.58;;;;;;;6.32;72.20;100503.51;427489;121;923185;-81
2022/02/20 02:47:36;;;;;;;5.04;3.68;;;;;;;6.32;72.27;100500.80;437755;117;922773;-81
2022/02/20 02:48:50;;;;;;;6.58;4.03;;;;;;;6.32;72.31;100500.80;449958;115;923157;-82
2022/02/20 02:49:55;;;;;;;4.52;3.52;;;;;;;6.33;72.30;100494.36;449371;115;922807;-81
2022/02/20 02:51:03;;;;;;;8.36;4.06;;;;;;;6.34;72.28;100504.17;450029;116;922617;-81
2022/02/20 02:52:07;;;;;;;4.51;3.84;;;;;;;6.34;72.32;100504.98;441322;118;930569;-79
2022/02/20 02:53:10;;;;;;;5.62;3.47;;;;;;;6.35;72.34;100503.95;441556;117;922667;-81
2022/02/20 02:54:18;;;;;;;5.19;3.92;;;;;;;6.37;72.34;100501.06;441596;118;923113;-81
2022/02/20 02:55:22;;;;;;;5.20;3.56;;;;;;;6.39;72.27;100502.57;441882;118;922642;-81
2022/02/20 02:56:27;;;;;;;6.05;4.03;;;;;;;6.40;72.24;100500.67;439303;118;923217;-81
2022/02/20 02:57:30;;;;;;;5.79;3.98;;;;;;;6.40;72.21;100504.22;440498;118;922655;-80
2022/02/20 02:58:34;;;;;;;5.75;4.39;;;;;;;6.40;72.15;100500.67;433480;120;922494;-81
2022/02/20 02:59:39;;;;;;;6.70;4.00;;;;;;;6.40;72.14;100503.38;432412;120;930721;-80
2022/02/20 03:00:43;;;;;;;7.72;4.67;;;;;;;6.39;72.08;100501.73;441072;117;922562;-81
2022/02/20 03:01:47;;;;;;;6.33;4.24;;;;;;;6.37;72.13;100503.78;439318;120;930678;-80
2022/02/20 03:02:50;;;;;;;4.18;3.66;;;;;;;6.36;72.15;100502.94;440898;118;922536;-80
2022/02/20 03:03:53;;;;;;;6.08;3.84;;;;;;;6.37;72.10;100506.48;434048;120;923303;-80
2022/02/20 03:05:03;;;;;;;5.75;3.86;;;;;;;6.35;72.01;100503.12;434526;120;922781;-80
2022/02/20 03:06:11;;;;;;;8.03;4.05;;;;;;;6.34;72.00;100506.88;440849;118;922605;-80
2022/02/20 03:07:15;;;;;;;6.89;3.98;;;;;;;6.31;71.97;100499.11;441203;120;923260;-80
2022/02/20 03:08:18;;;;;;;4.71;3.60;;;;;;;6.28;72.03;100495.75;441112;118;922745;-80
2022/02/20 03:09:22;;;;;;;4.30;3.28;;;;;;;6.27;72.14;100501.37;441031;118;928900;-81
2022/02/20 03:10:25;;;;;;;6.12;4.22;;;;;;;6.26;72.18;100505.10;432692;120;922593;-81
2022/02/20 03:11:28;;;;;;;6.14;4.08;;;;;;;6.27;72.20;100504.08;441594;118;922628;-79
2022/02/20 03:12:31;;;;;;;7.83;4.34;;;;;;;6.26;72.20;100511.36;431640;121;922820;-82
2022/02/20 03:13:37;;;;;;;5.08;4.29;;;;;;;6.26;72.18;100508.66;432205;120;922688;-78
2022/02/20 03:14:42;;;;;;;5.62;4.37;;;;;;;6.25;72.17;100506.97;439609;120;922580;-79
2022/02/20 03:15:46;;;;;;;6.04;4.38;;;;;;;6.24;72.19;100507.15;441590;118;923136;-80
2022/02/20 03:16:50;;;;;;;6.29;4.24;;;;;;;6.23;72.21;100510.88;426175;122;922789;-81
2022/02/20 03:17:53;;;;;;;4.89;4.01;;;;;;;6.22;72.22;100511.93;441665;117;922691;-80
2022/02/20 03:18:56;;;;;;;9.84;5.51;;;;;;;6.21;72.23;100510.24;449902;115;930521;-81
2022/02/20 03:20:00;;;;;;;7.62;4.54;;;;;;;6.18;72.32;100508.73;449645;116;922690;-80
2022/02/20 03:21:07;;;;;;;6.92;4.74;;;;;;;6.18;72.30;100518.73;449364;116;922656;-82
2022/02/20 03:22:10;;;;;;;6.19;4.64;;;;;;;6.17;72.31;100512.50;450367;116;922348;-79
2022/02/20 03:23:13;;;;;;;5.65;4.65;;;;;;;6.17;72.34;100508.95;449755;116;922799;-82
2022/02/20 03:24:17;;;;;;;4.68;4.22;;;;;;;6.16;72.41;100516.23;448880;116;922919;-79
2022/02/20 03:25:21;;;;;;;8.21;5.48;;;;;;;6.16;72.37;100516.23;441942;117;922728;-80
2022/02/20 03:26:26;;;;;;;5.61;4.25;;;;;;;6.16;72.46;100509.97;441344;118;930537;-80
2022/02/20 03:27:32;;;;;;;6.54;4.29;;;;;;;6.16;72.39;100507.27;440294;120;922858;-80
2022/02/20 03:28:37;;;;;;;7.97;4.36;;;;;;;6.14;72.43;100514.72;440748;118;923284;-81
2022/02/20 03:29:42;;;;;;;5.71;4.41;;;;;;;6.12;72.34;100514.90;442271;117;923297;-80
2022/02/20 03:30:46;;;;;;;7.36;4.38;;;;;;;6.10;72.38;100510.72;453082;115;922570;-80
2022/02/20 03:31:49;;;;;;;6.95;4.49;;;;;;;6.06;72.51;100510.27;449352;116;923166;-80
2022/02/20 03:32:53;;;;;;;5.91;4.38;;;;;;;6.05;72.49;100513.15;449966;115;922996;-77
2022/02/20 03:33:58;;;;;;;5.91;4.61;;;;;;;6.02;72.54;100514.35;452589;115;922744;-80
2022/02/20 03:35:04;;;;;;;6.74;4.83;;;;;;;6.00;72.58;100507.46;452520;116;922866;-80
2022/02/20 03:36:08;;;;;;;5.98;4.32;;;;;;;5.98;72.60;100506.80;452106;113;922953;-81
2022/02/20 03:37:11;;;;;;;7.47;4.48;;;;;;;5.95;72.61;100516.14;452747;115;930592;-80
2022/02/20 03:38:16;;;;;;;5.88;4.32;;;;;;;5.94;72.68;100513.62;453336;114;923045;-80
2022/02/20 03:39:20;;;;;;;7.98;4.09;;;;;;;5.91;72.71;100512.11;446100;118;922815;-80
2022/02/20 03:40:25;;;;;;;7.73;4.74;;;;;;;5.89;72.78;100511.48;444540;116;922659;-81
2022/02/20 03:41:29;;;;;;;6.76;4.88;;;;;;;5.86;72.77;100514.50;453023;115;922538;-81
2022/02/20 03:42:33;;;;;;;6.80;4.51;;;;;;;5.85;72.85;100515.52;453088;113;922724;-80
2022/02/20 03:43:38;;;;;;;6.61;5.16;;;;;;;5.82;72.94;100513.20;452972;116;930694;-81
2022/02/20 03:44:41;;;;;;;6.64;5.13;;;;;;;5.80;72.95;100512.54;451847;115;922637;-81
2022/02/20 03:45:46;;;;;;;6.76;4.85;;;;;;;5.75;73.09;100509.55;451594;114;923182;-81
2022/02/20 03:46:49;;;;;;;6.71;5.11;;;;;;;5.75;73.09;100509.55;452308;116;923043;-80
2022/02/20 03:47:53;;;;;;;7.78;4.69;;;;;;;5.72;73.08;100515.34;452494;116;922573;-80
2022/02/20 03:48:57;;;;;;;6.56;5.33;;;;;;;5.66;73.28;100505.27;450886;115;930668;-80
2022/02/20 03:50:03;;;;;;;7.89;4.68;;;;;;;5.66;73.28;100505.27;449418;115;922590;-79
2022/02/20 03:51:11;;;;;;;5.71;4.84;;;;;;;5.65;73.21;100522.52;451087;115;922598;-80
2022/02/20 03:52:15;;;;;;;6.75;5.03;;;;;;;5.63;73.29;100513.73;452454;116;922506;-79
2022/02/20 03:53:20;;;;;;;8.98;5.23;;;;;;;5.62;73.29;100514.78;451449;114;930566;-80
2022/02/20 03:54:24;;;;;;;6.07;4.88;;;;;;;5.61;73.37;100513.09;451758;113;923790;-80
2022/02/20 03:55:27;;;;;;;5.09;4.36;;;;;;;5.59;73.36;100517.84;444050;118;922801;-81
2022/02/20 03:56:31;;;;;;;7.78;5.97;;;;;;;5.57;73.34;100517.20;444810;116;930601;-78
2022/02/20 03:57:38;;;;;;;7.75;5.38;;;;;;;5.56;73.48;100523.62;443711;116;923362;-80
2022/02/20 03:58:46;;;;;;;8.73;5.37;;;;;;;5.55;73.49;100524.64;445446;116;923232;-80
2022/02/20 03:59:49;;;;;;;7.12;5.13;;;;;;;5.54;73.56;100526.51;452440;116;922512;-81
2022/02/20 04:00:53;;;;;;;6.65;5.21;;;;;;;5.54;73.53;100518.39;452366;116;930696;-81
2022/02/20 04:02:01;;;;;;;6.60;5.09;;;;;;;5.53;73.59;100519.41;450746;114;923503;-81
2022/02/20 04:03:04;;;;;;;6.72;5.62;;;;;;;5.52;73.64;100520.42;453501;116;922454;-81
2022/02/20 04:04:09;;;;;;;7.21;5.17;;;;;;;5.51;73.65;100520.64;452315;113;930678;-80
2022/02/20 04:05:15;;;;;;;6.65;5.72;;;;;;;5.50;73.63;100521.66;451631;116;923073;-78
2022/02/20 04:06:19;;;;;;;7.44;5.69;;;;;;;5.49;73.68;100526.22;452740;115;923049;-81
2022/02/20 04:07:24;;;;;;;7.03;5.24;;;;;;;5.48;73.72;100523.69;453549;116;922609;-79
2022/02/20 04:08:27;;;;;;;8.46;5.82;;;;;;;5.45;73.72;100520.34;452931;115;923560;-80
2022/02/20 04:09:32;;;;;;;5.91;5.24;;;;;;;5.45;73.76;100522.21;452097;115;930697;-80
2022/02/20 04:10:37;;;;;;;5.68;4.97;;;;;;;5.44;73.84;100529.48;453721;116;922567;-79
2022/02/20 04:11:43;;;;;;;6.31;5.11;;;;;;;5.43;73.83;100527.79;451966;116;922657;-79
2022/02/20 04:13:03;;;;;;;6.46;5.56;;;;;;;5.43;73.87;100525.09;450959;116;923063;-80
2022/02/20 04:14:08;;;;;;;7.14;5.13;;;;;;;5.43;73.80;100533.20;451187;115;922572;-80
2022/02/20 04:15:16;;;;;;;6.73;4.93;;;;;;;5.41;73.83;100531.69;449795;115;923041;-81
2022/02/20 04:16:20;;;;;;;9.49;5.58;;;;;;;5.39;73.86;100531.89;452618;115;922642;-80
2022/02/20 04:17:25;;;;;;;8.04;5.90;;;;;;;5.38;73.92;100530.20;452569;115;926443;-79
2022/02/20 04:18:28;;;;;;;8.03;6.24;;;;;;;5.36;73.92;100532.23;452131;114;922588;-81
2022/02/20 04:19:44;;;;;;;8.57;5.88;;;;;;;5.36;73.97;100531.39;450711;113;923151;-80
2022/02/20 04:20:48;;;;;;;7.17;5.43;;;;;;;5.36;73.97;100532.23;452480;113;922697;-82
2022/02/20 04:21:51;;;;;;;8.42;6.37;;;;;;;5.35;73.99;100535.11;452043;114;922543;-81
2022/02/20 04:22:56;;;;;;;7.22;6.41;;;;;;;5.33;74.01;100532.62;452294;116;922643;-80
2022/02/20 04:24:01;;;;;;;8.17;6.72;;;;;;;5.32;74.00;100530.93;452431;115;923046;-81
2022/02/20 04:25:06;;;;;;;8.36;6.72;;;;;;;5.32;74.01;100530.09;452318;115;922976;-80
2022/02/20 04:26:10;;;;;;;10.74;9.19;;;;;;;5.31;74.07;100540.06;451602;114;922590;-80
2022/02/20 04:27:13;;;;;;;14.09;12.77;;;;;;;5.31;74.04;100531.10;452933;116;922999;-80
2022/02/20 04:28:19;;;;;;;10.49;9.44;;;;;;;5.30;74.07;100540.23;444524;118;922720;-82
2022/02/20 04:29:22;;;;;;;8.36;6.47;;;;;;;5.31;74.13;100536.51;452986;115;923023;-78
2022/02/20 04:30:27;;;;;;;8.36;6.37;;;;;;;5.31;74.06;100539.22;453052;115;930673;-81
2022/02/20 04:31:32;;;;;;;10.29;6.12;;;;;;;5.31;74.04;100542.77;452512;115;922638;-82
2022/02/20 04:32:37;;;;;;;9.14;6.25;;;;;;;5.30;73.97;100542.94;452892;115;922921;-81
2022/02/20 04:33:41;;;;;;;6.88;5.94;;;;;;;5.30;74.02;100541.08;452628;115;922909;-79
2022/02/20 04:34:44;;;;;;;7.98;6.51;;;;;;;5.31;74.03;100544.63;453783;115;923268;-81
2022/02/20 04:35:48;;;;;;;6.28;5.41;;;;;;;5.31;74.05;100550.03;452673;116;922528;-80
2022/02/20 04:36:51;;;;;;;8.66;6.17;;;;;;;5.30;73.99;100543.78;451618;115;930733;-79
2022/02/20 04:37:54;;;;;;;8.53;6.39;;;;;;;5.30;74.00;100542.94;451458;116;922604;-80
2022/02/20 04:38:58;;;;;;;8.88;6.29;;;;;;;5.29;74.04;100547.50;452637;114;922617;-81
2022/02/20 04:40:03;;;;;;;9.22;6.47;;;;;;;5.29;74.09;100544.80;452428;116;923013;-82
2022/02/20 04:41:08;;;;;;;6.96;6.13;;;;;;;5.30;74.08;100556.45;452300;115;930502;-80
2022/02/20 04:42:12;;;;;;;10.88;5.64;;;;;;;5.30;74.09;100554.59;453014;114;922660;-80
2022/02/20 04:43:20;;;;;;;7.43;5.62;;;;;;;5.30;74.04;100551.89;451467;116;922485;-79
2022/02/20 04:44:25;;;;;;;8.68;6.48;;;;;;;5.30;74.02;100554.59;452149;116;922790;-83
2022/02/20 04:45:28;;;;;;;7.34;6.06;;;;;;;5.30;74.07;100553.75;451788;114;923160;-79
2022/02/20 04:46:35;;;;;;;8.44;6.04;;;;;;;5.30;74.08;100554.59;452441;115;923517;-78
2022/02/20 04:47:37;;;;;;;7.19;5.76;;;;;;;5.30;73.97;100554.59;443490;118;923465;-79
2022/02/20 04:48:42;;;;;;;7.43;5.49;;;;;;;5.29;73.94;100555.61;444328;116;922741;-80
2022/02/20 04:49:47;;;;;;;7.37;5.34;;;;;;;5.27;73.85;100557.67;452610;115;930595;-81
2022/02/20 04:50:52;;;;;;;9.52;6.44;;;;;;;5.27;73.85;100557.67;451687;113;922591;-80
2022/02/20 04:51:56;;;;;;;6.97;6.27;;;;;;;5.25;73.80;100559.70;452601;115;923326;-82
2022/02/20 04:53:17;;;;;;;6.12;5.44;;;;;;;5.24;73.80;100563.42;453390;113;930655;-81
2022/02/20 04:54:25;;;;;;;10.09;6.47;;;;;;;5.22;73.82;100557.38;452711;115;923847;-80
2022/02/20 04:55:28;;;;;;;8.04;6.91;;;;;;;5.22;73.90;100564.64;453141;115;923808;-80
2022/02/20 04:56:32;;;;;;;6.68;5.59;;;;;;;5.20;73.85;100559.41;452469;116;922584;-81
2022/02/20 04:57:37;;;;;;;8.03;5.81;;;;;;;5.20;73.89;100563.97;451749;115;930676;-81
2022/02/20 04:58:42;;;;;;;8.54;5.81;;;;;;;5.19;73.85;100562.28;452861;115;922735;-81
2022/02/20 04:59:55;;;;;;;7.48;5.97;;;;;;;5.17;73.87;100570.59;451719;116;923673;-81
2022/02/20 05:00:59;;;;;;;7.86;5.56;;;;;;;5.13;73.71;100569.25;452459;113;922630;-82
2022/02/20 05:02:04;;;;;;;6.46;5.38;;;;;;;5.13;73.71;100569.25;452429;116;922627;-80
2022/02/20 05:03:09;;;;;;;7.96;5.92;;;;;;;5.12;73.93;100570.30;452066;115;922550;-81